ΕΜΥ, Εθνική Μετεωρολογική Υπηρεσία - Δελτία Καιρού, Προγνώσεις

ΑΕΡΟΝΑΥΤΙΛΙΑ

GREEK AIRPORTS CODES

LGAT 290430Z AUTO 16006KT 120V240 //// // ////// 20/16 Q1001 RE//=

EUROPEAN AIRPORTS CODES

LFPO 290430Z 32005KT 9999 SCT016 00/M01 Q1009 NOSIG=